createdAt,value
2022-09-14T00:01:44.954Z,22.53
2022-09-14T00:04:16.741Z,22.57
2022-09-14T00:06:46.055Z,22.65
2022-09-14T00:09:17.259Z,22.71
2022-09-14T00:11:45.645Z,22.72
2022-09-14T00:14:16.492Z,22.73
2022-09-14T00:16:46.144Z,22.73
2022-09-14T00:19:20.293Z,22.81
2022-09-14T00:21:53.069Z,22.79
2022-09-14T00:24:21.637Z,22.74
2022-09-14T00:26:50.287Z,22.77
2022-09-14T00:29:20.941Z,22.85
2022-09-14T00:31:49.397Z,22.84
2022-09-14T00:34:19.173Z,22.89
2022-09-14T00:36:50.302Z,22.70
2022-09-14T00:39:23.603Z,22.76
2022-09-14T00:41:53.175Z,22.72
2022-09-14T00:45:02.685Z,22.84
2022-09-14T00:47:33.177Z,22.70
2022-09-14T00:50:04.411Z,22.65
2022-09-14T00:52:35.979Z,22.58
2022-09-14T00:55:08.770Z,22.47
2022-09-14T00:57:41.591Z,22.55
2022-09-14T01:00:15.230Z,22.73
2022-09-14T01:02:43.965Z,22.73
2022-09-14T01:05:13.560Z,22.55
2022-09-14T01:08:09.803Z,22.69
2022-09-14T01:10:51.687Z,22.70
2022-09-14T01:13:29.477Z,22.58
2022-09-14T01:16:08.853Z,22.62
2022-09-14T01:18:40.745Z,22.57
2022-09-14T01:21:13.641Z,22.39
2022-09-14T01:23:50.603Z,22.42
2022-09-14T01:27:00.125Z,22.49
2022-09-14T01:29:34.895Z,22.36
2022-09-14T01:32:09.692Z,22.17
2022-09-14T01:34:41.504Z,21.93
2022-09-14T01:37:14.673Z,22.03
2022-09-14T01:39:46.976Z,22.03
2022-09-14T01:42:18.212Z,21.97
2022-09-14T01:44:52.311Z,22.01
2022-09-14T01:47:27.137Z,21.96
2022-09-14T01:50:00.563Z,22.13
2022-09-14T01:52:35.049Z,22.22
2022-09-14T01:55:10.816Z,22.33
2022-09-14T01:57:45.540Z,22.34
2022-09-14T02:00:18.673Z,22.49
2022-09-14T02:02:51.007Z,22.47
2022-09-14T02:05:26.039Z,22.43
2022-09-14T02:07:55.388Z,22.32
2022-09-14T02:10:24.688Z,22.34
2022-09-14T02:12:53.409Z,22.55
2022-09-14T02:15:25.983Z,22.65
2022-09-14T02:17:55.504Z,22.77
2022-09-14T02:20:30.051Z,22.55
2022-09-14T02:22:58.600Z,22.52
2022-09-14T02:25:27.348Z,22.55
2022-09-14T02:27:55.841Z,22.44
2022-09-14T02:30:26.020Z,22.54
2022-09-14T02:33:09.139Z,22.55
2022-09-14T02:35:42.105Z,22.57
2022-09-14T02:38:19.455Z,22.44
2022-09-14T02:40:55.409Z,22.49
2022-09-14T02:43:34.515Z,22.33
2022-09-14T02:46:15.653Z,22.30
2022-09-14T02:48:51.296Z,22.16
2022-09-14T02:51:27.775Z,22.28
2022-09-14T02:54:02.667Z,22.11
2022-09-14T02:56:31.620Z,21.97
2022-09-14T02:59:00.204Z,21.86
2022-09-14T03:01:30.367Z,22.03
2022-09-14T03:03:58.839Z,21.99
2022-09-14T03:06:27.519Z,21.87
2022-09-14T03:08:55.892Z,21.92
2022-09-14T03:11:24.243Z,22.02
2022-09-14T03:13:52.741Z,22.12
2022-09-14T03:16:22.164Z,22.27
2022-09-14T03:18:52.053Z,22.27
2022-09-14T03:21:20.693Z,22.17
2022-09-14T03:23:52.017Z,22.33
2022-09-14T03:26:24.122Z,22.05
2022-09-14T03:28:53.797Z,22.15
2022-09-14T03:31:22.880Z,22.32
2022-09-14T03:33:56.819Z,22.52
2022-09-14T03:36:27.153Z,22.28
2022-09-14T03:38:58.579Z,22.26
2022-09-14T03:41:27.688Z,22.42
2022-09-14T03:43:55.999Z,22.42
2022-09-14T03:46:25.970Z,22.45
2022-09-14T03:48:57.082Z,22.20
2022-09-14T03:51:26.039Z,22.07
2022-09-14T03:53:54.753Z,22.11
2022-09-14T03:56:24.055Z,22.17
2022-09-14T03:58:52.482Z,22.33
2022-09-14T04:01:22.996Z,22.40
2022-09-14T04:03:52.527Z,22.53
2022-09-14T04:06:22.315Z,22.39
2022-09-14T04:08:50.688Z,22.60
2022-09-14T04:11:22.433Z,22.51
2022-09-14T04:13:51.613Z,22.41
2022-09-14T04:16:21.922Z,22.46
2022-09-14T04:18:50.758Z,22.37
2022-09-14T04:21:21.874Z,22.51
2022-09-14T04:24:13.933Z,22.53
2022-09-14T04:26:43.670Z,22.53
2022-09-14T04:29:13.063Z,22.72
2022-09-14T04:31:41.870Z,22.73
2022-09-14T04:34:12.792Z,22.76
2022-09-14T04:36:41.328Z,22.86
2022-09-14T04:39:14.012Z,22.86
2022-09-14T04:41:42.733Z,22.91
2022-09-14T04:44:11.850Z,22.81
2022-09-14T04:46:46.102Z,22.77
2022-09-14T04:49:16.659Z,22.88
2022-09-14T04:51:45.528Z,22.91
2022-09-14T04:54:17.489Z,22.96
2022-09-14T04:56:46.551Z,23.09
2022-09-14T04:59:16.390Z,23.12
2022-09-14T05:01:47.594Z,23.13
2022-09-14T05:04:17.060Z,23.21
2022-09-14T05:06:45.860Z,23.26
2022-09-14T05:09:17.237Z,23.39
2022-09-14T05:11:46.586Z,23.37
2022-09-14T05:14:15.757Z,23.37
2022-09-14T05:16:45.063Z,23.36
2022-09-14T05:19:15.511Z,23.61
2022-09-14T05:21:44.000Z,23.92
2022-09-14T05:24:16.783Z,24.12
2022-09-14T05:26:47.093Z,24.33
2022-09-14T05:29:17.997Z,24.22
2022-09-14T05:31:46.889Z,24.30
2022-09-14T05:34:17.216Z,24.26
2022-09-14T05:36:45.672Z,24.39
2022-09-14T05:39:17.770Z,24.55
2022-09-14T05:41:50.263Z,24.67
2022-09-14T05:44:19.140Z,24.87
2022-09-14T05:46:47.722Z,25.12
2022-09-14T05:49:16.185Z,25.31
2022-09-14T05:51:44.838Z,25.37
2022-09-14T05:54:13.460Z,25.58
2022-09-14T05:56:43.277Z,25.70
2022-09-14T05:59:12.133Z,25.86
2022-09-14T06:01:40.886Z,25.77
2022-09-14T06:04:12.351Z,25.62
2022-09-14T06:06:41.037Z,25.87
2022-09-14T06:09:09.568Z,25.93
2022-09-14T06:11:38.045Z,26.06
2022-09-14T06:14:08.484Z,26.14
2022-09-14T06:16:36.875Z,26.04
2022-09-14T06:19:05.785Z,26.10
2022-09-14T06:21:35.923Z,26.15
2022-09-14T06:24:05.170Z,26.44
2022-09-14T06:26:33.615Z,26.73
2022-09-14T06:29:02.341Z,26.88
2022-09-14T06:31:32.702Z,26.85
2022-09-14T06:34:01.214Z,26.97
2022-09-14T06:36:30.831Z,26.86
2022-09-14T06:39:01.340Z,27.07
2022-09-14T06:41:34.385Z,27.40
2022-09-14T06:44:03.366Z,27.63
2022-09-14T06:46:34.871Z,27.89
2022-09-14T06:49:05.907Z,28.11
2022-09-14T06:51:36.291Z,28.27
2022-09-14T06:54:06.361Z,28.43
2022-09-14T06:56:37.747Z,28.55
2022-09-14T06:59:08.050Z,28.69
2022-09-14T07:01:37.966Z,28.84
2022-09-14T07:04:06.822Z,28.97
2022-09-14T07:06:41.762Z,29.09
2022-09-14T07:09:10.184Z,29.15
2022-09-14T07:11:40.135Z,29.26
2022-09-14T07:14:09.537Z,29.34
2022-09-14T07:16:59.389Z,29.38
2022-09-14T07:19:28.045Z,29.40
2022-09-14T07:21:56.608Z,29.43
2022-09-14T07:24:25.091Z,29.57
2022-09-14T07:26:53.990Z,29.74
2022-09-14T07:29:23.064Z,29.80
2022-09-14T07:31:53.917Z,29.76
2022-09-14T07:34:25.531Z,29.82
2022-09-14T07:36:54.229Z,29.86
2022-09-14T07:39:22.654Z,29.88
2022-09-14T07:41:51.357Z,29.89
2022-09-14T07:44:19.891Z,30.01
2022-09-14T07:46:48.758Z,30.15
2022-09-14T07:49:18.484Z,30.23
2022-09-14T07:51:48.695Z,30.15
2022-09-14T07:54:18.967Z,30.37
2022-09-14T07:56:50.630Z,30.46
2022-09-14T07:59:36.445Z,30.50
2022-09-14T08:02:07.693Z,30.58
2022-09-14T08:04:36.937Z,30.62
2022-09-14T08:07:07.863Z,30.66
2022-09-14T08:09:36.513Z,30.70
2022-09-14T08:12:06.038Z,30.71
2022-09-14T08:14:34.699Z,30.79
2022-09-14T08:17:03.464Z,30.74
2022-09-14T08:19:31.843Z,30.75
2022-09-14T08:22:00.148Z,30.80
2022-09-14T08:24:30.059Z,30.89
2022-09-14T08:26:58.377Z,30.96
2022-09-14T08:29:27.137Z,30.96
2022-09-14T08:31:55.837Z,31.05
2022-09-14T08:34:24.292Z,31.02
2022-09-14T08:36:52.700Z,31.01
2022-09-14T08:39:21.806Z,31.03
2022-09-14T08:41:55.335Z,31.16
2022-09-14T08:44:28.442Z,31.20
2022-09-14T08:47:03.254Z,31.25
2022-09-14T08:49:47.980Z,31.24
2022-09-14T08:52:25.319Z,31.33
2022-09-14T08:54:56.267Z,31.29
2022-09-14T08:57:34.739Z,31.45
2022-09-14T09:00:11.412Z,31.58
2022-09-14T09:03:10.453Z,31.66
2022-09-14T09:05:47.920Z,31.27
2022-09-14T09:08:23.097Z,31.14
2022-09-14T09:10:54.887Z,30.94
2022-09-14T09:13:30.281Z,31.09
2022-09-14T09:16:01.909Z,31.31
2022-09-14T09:18:38.272Z,31.37
2022-09-14T09:21:11.745Z,31.46
2022-09-14T09:23:42.335Z,31.63
2022-09-14T09:26:17.973Z,31.45
2022-09-14T09:28:50.808Z,31.24
2022-09-14T09:31:23.955Z,31.36
2022-09-14T09:34:17.990Z,31.23
2022-09-14T09:36:49.570Z,31.43
2022-09-14T09:39:18.478Z,31.63
2022-09-14T09:41:52.637Z,31.73
2022-09-14T09:44:22.392Z,31.60
2022-09-14T09:46:54.572Z,31.38
2022-09-14T09:49:26.360Z,31.15
2022-09-14T09:51:57.246Z,31.07
2022-09-14T09:54:30.216Z,31.26
2022-09-14T09:57:01.786Z,31.19
2022-09-14T09:59:35.331Z,31.42
2022-09-14T10:02:24.205Z,31.72
2022-09-14T10:05:01.896Z,31.87
2022-09-14T10:07:32.840Z,31.91
2022-09-14T10:10:04.161Z,32.03
2022-09-14T10:12:33.683Z,31.93
2022-09-14T10:15:16.368Z,31.82
2022-09-14T10:18:05.728Z,32.02
2022-09-14T10:20:34.598Z,32.10
2022-09-14T10:23:22.820Z,32.37
2022-09-14T10:25:52.646Z,32.40
2022-09-14T10:28:28.089Z,32.54
2022-09-14T10:31:03.206Z,32.70
2022-09-14T10:33:33.172Z,32.35
2022-09-14T10:36:10.102Z,32.32
2022-09-14T10:38:43.134Z,32.20
2022-09-14T10:41:24.466Z,32.33
2022-09-14T10:44:22.618Z,32.62
2022-09-14T10:47:04.886Z,32.77
2022-09-14T10:49:49.585Z,32.81
2022-09-14T10:52:25.567Z,32.94
2022-09-14T10:55:08.626Z,32.82
2022-09-14T10:57:45.733Z,33.21
2022-09-14T11:00:18.719Z,33.21
2022-09-14T11:03:04.908Z,33.65
2022-09-14T11:05:38.597Z,33.92
2022-09-14T11:08:16.319Z,34.04
2022-09-14T11:11:08.074Z,34.09
2022-09-14T11:13:50.848Z,34.34
2022-09-14T11:16:37.928Z,34.42
2022-09-14T11:19:23.444Z,34.61
2022-09-14T11:22:02.870Z,34.80
2022-09-14T11:24:39.625Z,34.92
2022-09-14T11:27:16.669Z,35.12
2022-09-14T11:29:50.894Z,35.27
2022-09-14T11:32:23.225Z,34.91
2022-09-14T11:34:58.175Z,35.04
2022-09-14T11:37:33.949Z,35.09
2022-09-14T11:40:10.319Z,34.99
2022-09-14T11:42:47.107Z,34.85
2022-09-14T11:45:21.175Z,35.16
2022-09-14T11:47:59.000Z,35.31
2022-09-14T11:50:31.672Z,35.63
2022-09-14T11:53:17.488Z,35.98
2022-09-14T11:55:48.676Z,36.19
2022-09-14T11:58:22.170Z,35.61
2022-09-14T12:01:25.117Z,35.87
2022-09-14T12:04:14.887Z,35.86
2022-09-14T12:06:51.432Z,35.86
2022-09-14T12:09:43.942Z,35.78
2022-09-14T12:12:41.529Z,35.78
2022-09-14T12:15:33.241Z,35.75
2022-09-14T12:18:24.378Z,35.29
2022-09-14T12:21:02.715Z,35.77
2022-09-14T12:23:42.974Z,35.76
2022-09-14T12:26:33.810Z,36.36
2022-09-14T12:29:32.445Z,36.63
2022-09-14T12:32:07.192Z,36.83
2022-09-14T12:34:35.806Z,36.98
2022-09-14T12:37:32.020Z,36.91
2022-09-14T12:40:35.357Z,36.72
2022-09-14T12:43:47.025Z,36.73
2022-09-14T12:46:38.858Z,36.71
2022-09-14T12:49:29.410Z,36.62
2022-09-14T12:52:03.564Z,36.29
2022-09-14T12:54:44.008Z,36.37
2022-09-14T12:57:30.207Z,35.59
2022-09-14T13:00:13.044Z,35.66
2022-09-14T13:03:08.971Z,35.87
2022-09-14T13:05:37.909Z,35.83
2022-09-14T13:08:12.013Z,35.50
2022-09-14T13:10:46.942Z,35.56
2022-09-14T13:13:20.308Z,35.59
2022-09-14T13:15:55.013Z,35.17
2022-09-14T13:18:30.769Z,35.03
2022-09-14T13:21:02.167Z,35.21
2022-09-14T13:23:34.011Z,35.30
2022-09-14T13:26:10.851Z,35.38
2022-09-14T13:28:44.775Z,34.86
2022-09-14T13:31:15.426Z,33.94
2022-09-14T13:33:50.176Z,34.17
2022-09-14T13:36:22.650Z,34.56
2022-09-14T13:38:52.218Z,34.35
2022-09-14T13:41:23.373Z,34.38
2022-09-14T13:43:57.087Z,34.68
2022-09-14T13:46:27.979Z,34.81
2022-09-14T13:48:57.484Z,35.04
2022-09-14T13:51:27.934Z,34.65
2022-09-14T13:53:58.302Z,34.85
2022-09-14T13:56:31.417Z,34.98
2022-09-14T13:59:19.586Z,35.24
2022-09-14T14:01:55.398Z,35.29
2022-09-14T14:04:37.391Z,35.45
2022-09-14T14:07:16.698Z,35.15
2022-09-14T14:09:50.728Z,35.19
2022-09-14T14:12:25.300Z,35.30
2022-09-14T14:14:57.607Z,35.37
2022-09-14T14:17:34.473Z,35.50
2022-09-14T14:20:32.090Z,35.64
2022-09-14T14:23:16.630Z,35.56
2022-09-14T14:25:48.630Z,35.56
2022-09-14T14:28:20.867Z,35.40
2022-09-14T14:30:51.892Z,35.46
2022-09-14T14:33:22.661Z,35.38
2022-09-14T14:35:53.851Z,35.45
2022-09-14T14:38:23.356Z,35.42
2022-09-14T14:40:54.849Z,35.02
2022-09-14T14:43:26.262Z,35.14
2022-09-14T14:45:59.107Z,35.15
2022-09-14T14:48:28.693Z,35.12
2022-09-14T14:50:57.161Z,35.13
2022-09-14T14:53:26.484Z,35.09
2022-09-14T14:55:55.175Z,34.98
2022-09-14T14:58:25.235Z,34.98
2022-09-14T15:00:54.636Z,34.97
2022-09-14T15:03:24.796Z,34.97
2022-09-14T15:05:53.287Z,34.93
2022-09-14T15:08:21.811Z,34.86
2022-09-14T15:10:57.257Z,34.92
2022-09-14T15:13:26.015Z,34.82
2022-09-14T15:15:54.665Z,34.66
2022-09-14T15:18:24.506Z,34.44
2022-09-14T15:20:53.907Z,34.38
2022-09-14T15:23:22.530Z,34.29
2022-09-14T15:25:52.186Z,34.16
2022-09-14T15:28:20.852Z,34.26
2022-09-14T15:30:49.536Z,33.88
2022-09-14T15:33:18.022Z,33.60
2022-09-14T15:35:55.507Z,33.48
2022-09-14T15:38:24.276Z,33.47
2022-09-14T15:40:52.942Z,33.53
2022-09-14T15:43:21.417Z,33.50
2022-09-14T15:45:50.063Z,33.14
2022-09-14T15:48:19.856Z,32.76
2022-09-14T15:50:50.240Z,32.87
2022-09-14T15:53:19.116Z,32.96
2022-09-14T15:55:52.608Z,32.67
2022-09-14T15:58:31.676Z,32.54
2022-09-14T16:01:09.290Z,32.71
2022-09-14T16:03:38.276Z,32.76
2022-09-14T16:06:08.756Z,32.66
2022-09-14T16:08:37.489Z,32.67
2022-09-14T16:11:08.037Z,32.77
2022-09-14T16:13:37.519Z,32.83
2022-09-14T16:16:09.428Z,32.46
2022-09-14T16:18:38.947Z,32.38
2022-09-14T16:21:12.374Z,32.61
2022-09-14T16:23:44.882Z,32.67
2022-09-14T16:26:15.506Z,32.74
2022-09-14T16:28:47.949Z,32.77
2022-09-14T16:31:20.508Z,32.42
2022-09-14T16:33:55.710Z,32.31
2022-09-14T16:36:28.113Z,32.50
2022-09-14T16:39:00.529Z,32.52
2022-09-14T16:41:30.057Z,32.50
2022-09-14T16:44:00.273Z,32.49
2022-09-14T16:46:44.160Z,32.50
2022-09-14T16:49:16.848Z,32.30
2022-09-14T16:51:49.190Z,32.11
2022-09-14T16:54:19.766Z,32.15
2022-09-14T16:56:48.607Z,32.13
2022-09-14T16:59:20.579Z,32.13
2022-09-14T17:01:54.275Z,32.05
2022-09-14T17:04:25.085Z,32.02
2022-09-14T17:07:00.668Z,31.96
2022-09-14T17:09:34.383Z,31.95
2022-09-14T17:12:04.893Z,31.76
2022-09-14T17:14:35.835Z,31.71
2022-09-14T17:17:17.985Z,31.74
2022-09-14T17:19:58.064Z,31.69
2022-09-14T17:22:30.848Z,31.59
2022-09-14T17:25:04.497Z,31.29
2022-09-14T17:27:35.485Z,31.35
2022-09-14T17:30:18.254Z,31.33
2022-09-14T17:32:46.906Z,31.23
2022-09-14T17:35:19.825Z,31.22
2022-09-14T17:37:50.124Z,31.19
2022-09-14T17:40:18.851Z,31.15
2022-09-14T17:42:47.340Z,31.11
2022-09-14T17:45:16.074Z,31.07
2022-09-14T17:47:44.515Z,31.04
2022-09-14T17:50:13.196Z,30.96
2022-09-14T17:52:41.906Z,30.91
2022-09-14T17:55:11.892Z,30.84
2022-09-14T17:57:42.650Z,30.87
2022-09-14T18:00:12.513Z,30.80
2022-09-14T18:02:41.094Z,30.78
2022-09-14T18:05:09.959Z,30.71
2022-09-14T18:07:38.917Z,30.67
2022-09-14T18:10:08.357Z,30.63
2022-09-14T18:12:39.779Z,30.60
2022-09-14T18:15:09.463Z,30.56
2022-09-14T18:17:38.415Z,30.54
2022-09-14T18:20:09.259Z,30.41
2022-09-14T18:22:38.235Z,30.41
2022-09-14T18:25:08.331Z,30.33
2022-09-14T18:27:38.462Z,30.33
2022-09-14T18:30:08.555Z,30.28
2022-09-14T18:32:39.121Z,30.22
2022-09-14T18:35:09.449Z,30.17
2022-09-14T18:37:38.117Z,30.13
2022-09-14T18:40:07.768Z,30.03
2022-09-14T18:42:36.571Z,29.97
2022-09-14T18:45:07.442Z,29.84
2022-09-14T18:47:36.017Z,29.81
2022-09-14T18:50:05.952Z,29.56
2022-09-14T18:52:34.427Z,29.51
2022-09-14T18:55:02.965Z,29.50
2022-09-14T18:57:31.726Z,29.41
2022-09-14T19:00:00.273Z,29.51
2022-09-14T19:02:30.202Z,29.50
2022-09-14T19:04:59.285Z,29.48
2022-09-14T19:07:28.049Z,29.56
2022-09-14T19:09:58.584Z,29.54
2022-09-14T19:12:27.608Z,29.58
2022-09-14T19:14:56.853Z,29.53
2022-09-14T19:17:25.913Z,29.51
2022-09-14T19:19:55.968Z,29.49
2022-09-14T19:22:24.353Z,29.44
2022-09-14T19:24:53.238Z,29.33
2022-09-14T19:27:21.864Z,29.22
2022-09-14T19:29:50.308Z,29.01
2022-09-14T19:32:19.388Z,29.12
2022-09-14T19:34:49.640Z,29.09
2022-09-14T19:37:24.182Z,29.13
2022-09-14T19:39:53.463Z,29.15
2022-09-14T19:42:24.406Z,29.14
2022-09-14T19:44:53.094Z,29.13
2022-09-14T19:47:21.802Z,29.11
2022-09-14T19:49:50.262Z,29.10
2022-09-14T19:52:18.981Z,29.11
2022-09-14T19:54:49.129Z,29.03
2022-09-14T19:57:17.614Z,29.00
2022-09-14T19:59:46.174Z,28.89
2022-09-14T20:02:15.056Z,28.87
2022-09-14T20:04:43.543Z,28.72
2022-09-14T20:07:12.552Z,28.60
2022-09-14T20:09:41.289Z,28.51
2022-09-14T20:12:11.018Z,28.61
2022-09-14T20:14:39.538Z,28.57
2022-09-14T20:17:08.472Z,28.51
2022-09-14T20:19:39.253Z,28.49
2022-09-14T20:22:07.708Z,28.42
2022-09-14T20:24:36.527Z,28.42
2022-09-14T20:27:05.446Z,28.21
2022-09-14T20:29:35.992Z,28.03
2022-09-14T20:32:06.440Z,28.17
2022-09-14T20:34:35.535Z,28.19
2022-09-14T20:37:04.431Z,28.24
2022-09-14T20:39:35.998Z,28.24
2022-09-14T20:42:04.463Z,28.23
2022-09-14T20:44:33.184Z,28.25
2022-09-14T20:47:03.433Z,28.17
2022-09-14T20:49:32.335Z,28.21
2022-09-14T20:52:02.836Z,28.17
2022-09-14T20:54:31.558Z,28.19
2022-09-14T20:57:04.487Z,28.18
2022-09-14T20:59:33.563Z,28.14
2022-09-14T21:02:05.542Z,28.11
2022-09-14T21:04:35.960Z,28.22
2022-09-14T21:07:04.634Z,28.27
2022-09-14T21:09:33.130Z,28.37
2022-09-14T21:12:01.941Z,28.43
2022-09-14T21:14:31.068Z,28.44
2022-09-14T21:16:59.788Z,28.39
2022-09-14T21:19:30.353Z,28.40
2022-09-14T21:21:59.193Z,28.39
2022-09-14T21:24:28.007Z,28.39
2022-09-14T21:26:57.585Z,28.37
2022-09-14T21:29:26.064Z,28.35
2022-09-14T21:31:54.783Z,28.34
2022-09-14T21:34:23.534Z,28.25
2022-09-14T21:36:54.031Z,28.27
2022-09-14T21:39:28.080Z,28.31
2022-09-14T21:41:59.336Z,28.24
2022-09-14T21:44:32.235Z,28.31
2022-09-14T21:47:01.494Z,28.21
2022-09-14T21:49:30.471Z,28.21
2022-09-14T21:52:00.281Z,28.23
2022-09-14T21:54:29.134Z,28.20
2022-09-14T21:56:57.859Z,28.16
2022-09-14T21:59:26.398Z,28.15
2022-09-14T22:01:55.473Z,27.96
2022-09-14T22:04:26.180Z,27.98
2022-09-14T22:06:55.098Z,27.97
2022-09-14T22:09:28.296Z,28.01
2022-09-14T22:11:57.561Z,27.78
2022-09-14T22:14:28.294Z,27.77
2022-09-14T22:16:56.840Z,27.88
2022-09-14T22:19:28.703Z,27.86
2022-09-14T22:21:57.703Z,27.87
2022-09-14T22:24:36.355Z,27.86
2022-09-14T22:27:07.857Z,27.79
2022-09-14T22:29:36.749Z,27.85
2022-09-14T22:32:11.262Z,27.84
2022-09-14T22:34:41.937Z,27.80
2022-09-14T22:37:10.465Z,27.84
2022-09-14T22:39:41.828Z,27.89
2022-09-14T22:42:10.425Z,27.86
2022-09-14T22:44:39.112Z,27.92
2022-09-14T22:47:08.066Z,27.93
2022-09-14T22:49:36.509Z,27.95
2022-09-14T22:52:05.073Z,27.97
2022-09-14T22:54:34.060Z,27.91
2022-09-14T22:57:03.903Z,27.85
2022-09-14T22:59:32.911Z,27.74
2022-09-14T23:02:01.521Z,27.49
2022-09-14T23:04:31.134Z,27.42
2022-09-14T23:07:01.123Z,27.48
2022-09-14T23:09:29.996Z,27.51
2022-09-14T23:11:58.253Z,27.57
2022-09-14T23:14:28.202Z,27.36
2022-09-14T23:16:56.877Z,27.53
2022-09-14T23:19:25.260Z,27.41
2022-09-14T23:21:53.688Z,27.35
2022-09-14T23:24:22.404Z,27.43
2022-09-14T23:26:50.721Z,27.44
2022-09-14T23:29:19.118Z,27.28
2022-09-14T23:31:49.073Z,27.18
2022-09-14T23:34:18.007Z,26.99
2022-09-14T23:36:46.325Z,27.15
2022-09-14T23:39:14.926Z,27.09
2022-09-14T23:41:43.434Z,26.90
2022-09-14T23:44:12.803Z,27.14
2022-09-14T23:46:41.685Z,27.09
2022-09-14T23:49:12.232Z,27.03
2022-09-14T23:51:41.913Z,27.08
2022-09-14T23:54:11.617Z,27.12
2022-09-14T23:56:40.185Z,27.00
2022-09-14T23:59:08.710Z,27.04
